createdAt,value
2022-10-06T00:00:53.904Z,2.40
2022-10-06T00:03:46.093Z,1.70
2022-10-06T00:06:40.566Z,1.90
2022-10-06T00:09:31.950Z,2.03
2022-10-06T00:12:19.853Z,1.97
2022-10-06T00:15:16.751Z,1.93
2022-10-06T00:18:08.121Z,2.17
2022-10-06T00:21:03.742Z,1.73
2022-10-06T00:26:41.544Z,1.73
2022-10-06T00:29:34.126Z,2.10
2022-10-06T00:32:26.762Z,1.57
2022-10-06T00:35:17.586Z,2.40
2022-10-06T00:38:07.451Z,1.30
2022-10-06T00:41:00.974Z,2.03
2022-10-06T00:44:06.942Z,1.73
2022-10-06T00:46:56.636Z,1.63
2022-10-06T00:49:51.431Z,1.87
2022-10-06T00:55:44.288Z,2.37
2022-10-06T00:58:33.203Z,1.63
2022-10-06T01:01:30.032Z,1.93
2022-10-06T01:04:32.474Z,2.47
2022-10-06T06:41:00.994Z,2.30
2022-10-06T06:44:28.736Z,2.03
2022-10-06T06:47:39.829Z,2.43
2022-10-06T06:54:59.334Z,1.93
2022-10-06T07:23:10.704Z,2.73
2022-10-06T07:25:57.810Z,2.30
2022-10-06T07:28:45.333Z,1.87
2022-10-06T07:31:35.747Z,2.93
2022-10-06T07:34:23.227Z,1.73
2022-10-06T07:37:10.304Z,1.57
2022-10-06T07:39:57.801Z,1.73
2022-10-06T07:42:48.809Z,1.90
2022-10-06T07:45:41.086Z,1.63
2022-10-06T07:48:28.362Z,1.63
2022-10-06T07:51:18.426Z,1.70
2022-10-06T07:54:06.964Z,1.73
2022-10-06T07:56:54.705Z,1.83
2022-10-06T07:59:42.276Z,1.93
2022-10-06T08:02:31.584Z,2.90
2022-10-06T08:05:22.845Z,1.90
2022-10-06T08:08:10.091Z,1.53
2022-10-06T08:11:01.613Z,1.70
2022-10-06T08:13:50.471Z,2.17
2022-10-06T08:16:38.137Z,1.93
2022-10-06T08:19:25.355Z,2.43
2022-10-06T08:22:16.005Z,2.33
2022-10-06T08:25:06.510Z,1.67
2022-10-06T08:27:54.408Z,1.70
2022-10-06T08:30:41.867Z,1.40
2022-10-06T08:33:29.360Z,1.27
2022-10-06T08:36:19.286Z,1.57
2022-10-06T08:39:07.271Z,1.57
2022-10-06T08:41:55.850Z,1.43
2022-10-06T08:44:48.658Z,1.70
2022-10-06T08:47:37.235Z,1.77
2022-10-06T08:50:28.423Z,1.50
2022-10-06T08:53:38.121Z,1.87
2022-10-06T08:56:36.449Z,1.70
2022-10-06T08:59:24.022Z,1.33
2022-10-06T09:02:32.393Z,1.60
2022-10-06T09:05:28.428Z,1.47
2022-10-06T09:09:03.529Z,1.70
2022-10-06T09:12:03.944Z,1.17
2022-10-06T09:14:52.727Z,1.53
2022-10-06T09:17:49.796Z,1.80
2022-10-06T09:20:44.121Z,1.07
2022-10-06T09:39:37.712Z,1.20
2022-10-06T09:42:44.523Z,1.70
2022-10-06T09:45:32.132Z,1.53
2022-10-06T09:48:39.450Z,1.50
2022-10-06T09:51:28.457Z,1.50
2022-10-06T10:02:50.966Z,1.57
2022-10-06T10:08:32.872Z,1.00
2022-10-06T10:11:40.880Z,1.07
2022-10-06T10:14:37.192Z,1.37
2022-10-06T10:17:51.351Z,2.20
2022-10-06T10:21:15.972Z,1.60
2022-10-06T10:24:12.873Z,2.00
2022-10-06T10:27:20.088Z,1.73
2022-10-06T10:30:14.670Z,1.80
2022-10-06T10:33:14.397Z,1.52
2022-10-06T10:36:39.761Z,1.20
2022-10-06T10:40:07.782Z,2.13
2022-10-06T10:42:57.675Z,1.60
2022-10-06T10:46:55.147Z,1.40
2022-10-06T11:01:13.588Z,1.80
2022-10-06T11:04:04.132Z,1.27
2022-10-06T11:07:16.932Z,1.43
2022-10-06T11:10:31.982Z,1.43
2022-10-06T11:14:31.822Z,1.50
2022-10-06T11:25:19.950Z,1.50
2022-10-06T11:31:51.489Z,1.70
2022-10-06T11:34:40.615Z,1.53
2022-10-06T11:37:40.933Z,1.43
2022-10-06T11:40:53.388Z,2.20
2022-10-06T11:43:45.247Z,1.77
2022-10-06T11:46:45.102Z,2.10
2022-10-06T11:49:58.515Z,1.50
2022-10-06T11:52:46.734Z,1.57
2022-10-06T11:55:34.589Z,2.37
2022-10-06T12:10:49.711Z,1.40
2022-10-06T12:17:11.729Z,1.87
2022-10-06T12:20:05.571Z,1.83
2022-10-06T12:30:00.659Z,1.80
2022-10-06T12:32:49.895Z,2.37
2022-10-06T12:45:28.555Z,1.57
2022-10-06T12:48:36.089Z,1.77
2022-10-06T12:51:44.882Z,1.57
2022-10-06T12:54:35.631Z,1.60
2022-10-06T12:57:28.589Z,1.60
2022-10-06T13:00:40.932Z,1.47
2022-10-06T13:03:29.414Z,1.53
2022-10-06T13:06:24.401Z,1.30
2022-10-06T13:09:15.021Z,1.10
2022-10-06T13:15:28.071Z,2.17
2022-10-06T13:18:22.920Z,1.33
2022-10-06T13:21:16.818Z,1.38
2022-10-06T13:24:05.729Z,1.50
2022-10-06T13:26:54.018Z,1.70
2022-10-06T13:29:41.357Z,1.43
2022-10-06T13:32:35.512Z,1.40
2022-10-06T13:37:00.316Z,1.63
2022-10-06T13:53:30.293Z,1.37
2022-10-06T13:56:41.402Z,1.40
2022-10-06T14:00:10.295Z,1.53
2022-10-06T14:12:32.810Z,1.77
2022-10-06T14:18:40.835Z,1.53
2022-10-06T14:21:44.987Z,2.00
2022-10-06T14:24:37.400Z,1.87
2022-10-06T14:27:24.674Z,1.13
2022-10-06T14:30:12.404Z,1.23
2022-10-06T14:32:59.935Z,1.20
2022-10-06T14:35:48.830Z,1.33
2022-10-06T14:38:36.930Z,1.73
2022-10-06T14:41:27.753Z,1.33
2022-10-06T14:44:23.867Z,1.20
2022-10-06T14:47:11.119Z,1.33
2022-10-06T14:49:58.956Z,1.40
2022-10-06T14:52:46.745Z,1.50
2022-10-06T14:55:34.821Z,1.20
2022-10-06T14:58:31.024Z,1.90
2022-10-06T15:01:20.776Z,1.87
2022-10-06T15:04:16.717Z,1.40
2022-10-06T15:07:22.721Z,1.50
2022-10-06T15:10:10.174Z,1.60
2022-10-06T15:12:59.157Z,1.67
2022-10-06T15:15:47.408Z,1.93
2022-10-06T15:18:42.939Z,1.70
2022-10-06T15:21:31.838Z,1.90
2022-10-06T15:28:33.358Z,2.60
2022-10-06T15:31:28.961Z,2.20
2022-10-06T15:34:26.246Z,1.50
2022-10-06T15:37:13.740Z,2.03
2022-10-06T15:40:01.731Z,2.00
2022-10-06T15:42:50.058Z,2.00
2022-10-06T15:46:12.194Z,2.20
2022-10-06T15:49:05.764Z,1.83
2022-10-06T15:52:10.742Z,1.77
2022-10-06T15:58:31.560Z,2.27
2022-10-06T16:01:32.329Z,2.23
2022-10-06T16:04:38.827Z,2.00
2022-10-06T16:07:25.982Z,1.70
2022-10-06T16:10:13.573Z,2.93
2022-10-06T16:16:07.081Z,2.03
2022-10-06T16:18:54.721Z,1.87
2022-10-06T16:21:43.085Z,2.10
2022-10-06T16:24:31.261Z,2.47
2022-10-06T16:27:18.521Z,1.57
2022-10-06T16:30:16.606Z,1.60
2022-10-06T16:33:04.230Z,1.93
2022-10-06T16:35:58.842Z,2.47
2022-10-06T16:38:50.513Z,1.70
2022-10-06T16:41:37.719Z,2.07
2022-10-06T16:44:33.071Z,1.90
2022-10-06T16:53:34.365Z,1.80
2022-10-06T17:02:41.793Z,1.73
2022-10-06T17:05:29.623Z,1.80
2022-10-06T17:08:17.054Z,1.87
2022-10-06T17:11:07.137Z,2.00
2022-10-06T17:13:57.737Z,1.63
2022-10-06T17:16:46.890Z,1.60
2022-10-06T17:19:34.394Z,1.67
2022-10-06T17:22:21.865Z,1.50
2022-10-06T17:25:16.646Z,1.70
2022-10-06T17:28:04.197Z,2.10
2022-10-06T17:34:06.276Z,1.70
2022-10-06T17:36:57.277Z,1.70
2022-10-06T17:40:31.571Z,2.13
2022-10-06T17:43:20.357Z,1.95
2022-10-06T17:46:11.283Z,1.70
2022-10-06T17:49:03.050Z,2.20
2022-10-06T17:51:52.781Z,1.87
2022-10-06T18:07:50.100Z,1.73
2022-10-06T18:14:54.779Z,2.30
2022-10-06T18:17:42.313Z,2.20
2022-10-06T18:20:43.693Z,1.97
2022-10-06T18:23:39.040Z,2.57
2022-10-06T18:30:50.118Z,2.28
2022-10-06T19:15:21.294Z,2.57
2022-10-06T19:18:08.604Z,1.70
2022-10-06T19:20:56.067Z,1.90
2022-10-06T19:23:43.614Z,2.27
2022-10-06T19:26:42.393Z,2.57
2022-10-06T19:29:36.969Z,2.80
2022-10-06T19:32:28.186Z,2.93
2022-10-06T19:35:16.159Z,3.03
2022-10-06T19:38:08.975Z,2.20
2022-10-06T19:42:20.356Z,2.37
2022-10-06T19:45:56.677Z,2.27
2022-10-06T19:56:35.120Z,2.43
2022-10-06T20:03:08.138Z,1.90
2022-10-06T20:06:13.351Z,2.67
2022-10-06T20:09:10.601Z,2.50
2022-10-06T20:13:02.505Z,2.40
2022-10-06T20:16:17.752Z,2.37
2022-10-06T20:19:57.583Z,3.37
2022-10-06T20:23:23.955Z,2.53
2022-10-06T20:26:45.471Z,2.63
2022-10-06T20:29:32.636Z,2.73
2022-10-06T20:32:20.148Z,2.77
2022-10-06T20:35:08.627Z,2.53
2022-10-06T20:37:56.096Z,2.50
2022-10-06T20:40:49.082Z,2.30
2022-10-06T20:43:36.224Z,2.57
2022-10-06T20:46:31.375Z,2.63
2022-10-06T20:49:18.616Z,2.60
2022-10-06T20:52:06.378Z,3.00
2022-10-06T20:55:35.742Z,2.83
2022-10-06T20:59:12.558Z,2.70
2022-10-06T21:02:00.396Z,2.77
2022-10-06T21:05:09.962Z,2.83
2022-10-06T21:14:47.640Z,2.47
2022-10-06T21:17:35.219Z,1.93
2022-10-06T21:20:22.623Z,2.53
2022-10-06T21:23:10.321Z,3.70
2022-10-06T21:26:01.917Z,2.57
2022-10-06T21:28:52.785Z,2.50
2022-10-06T21:31:40.571Z,2.97
2022-10-06T21:34:27.625Z,2.40
2022-10-06T21:37:15.106Z,2.77
2022-10-06T21:40:02.823Z,2.70
2022-10-06T21:42:50.269Z,2.53
2022-10-06T21:54:47.028Z,2.30
2022-10-06T21:58:07.846Z,2.20
2022-10-06T22:00:58.149Z,2.80
2022-10-06T22:03:46.242Z,2.47
2022-10-06T22:06:54.191Z,2.40
2022-10-06T22:09:41.293Z,2.10
2022-10-06T22:12:28.383Z,3.20
2022-10-06T22:15:15.900Z,2.63
2022-10-06T22:18:03.457Z,2.53
2022-10-06T22:21:10.127Z,3.20
2022-10-06T22:34:07.465Z,3.10
2022-10-06T22:36:55.043Z,2.80
2022-10-06T22:39:50.622Z,2.93
2022-10-06T22:43:24.140Z,2.97
2022-10-06T22:46:12.263Z,2.50
2022-10-06T22:49:28.080Z,2.17
2022-10-06T22:52:35.101Z,1.93
2022-10-06T22:55:48.678Z,2.80
2022-10-06T22:58:51.487Z,2.67
2022-10-06T23:01:38.940Z,3.07
2022-10-06T23:04:26.389Z,3.07
2022-10-06T23:07:13.791Z,2.53
2022-10-06T23:10:01.222Z,2.60
2022-10-06T23:12:52.189Z,2.83
2022-10-06T23:15:39.274Z,2.83
2022-10-06T23:18:30.166Z,2.47
2022-10-06T23:21:27.380Z,3.20
2022-10-06T23:27:46.240Z,2.67
2022-10-06T23:30:42.274Z,2.97
2022-10-06T23:34:03.801Z,2.70
2022-10-06T23:43:26.167Z,2.93
2022-10-06T23:49:52.360Z,2.90
2022-10-06T23:53:16.831Z,2.87
2022-10-06T23:56:29.837Z,3.37
